Time;durP1;ratioP1;P1;durP2;ratioP2;P2;SDS_P1;SDS_P2;PMS_P1;PMS_P2;Temp;Humidity;BMP_temperature;BMP_pressure;BME280_temperature;BME280_humidity;BME280_pressure;Samples;Min_cycle;Max_cycle;Signal;HPM_P1;HPM_P2
2023/05/04 00:01:36;;;;;;;10.53;4.60;;;;;;;4.39;81.18;101959.16;5030296;28;20203;-72
2023/05/04 00:04:03;;;;;;;8.90;5.57;;;;;;;4.37;81.89;101956.81;5030513;28;20274;-72
2023/05/04 00:06:29;;;;;;;9.03;4.97;;;;;;;4.32;81.86;101951.56;5035012;28;20223;-72
2023/05/04 00:08:57;;;;;;;10.77;5.07;;;;;;;4.29;81.64;101946.81;5028231;28;20628;-72
2023/05/04 00:11:23;;;;;;;9.27;4.60;;;;;;;4.25;81.61;101956.19;5027920;28;20467;-71
2023/05/04 00:13:50;;;;;;;8.67;4.93;;;;;;;4.23;82.13;101954.88;5028472;28;20323;-71
2023/05/04 00:16:20;;;;;;;9.47;4.67;;;;;;;4.21;82.14;101954.34;5013837;28;20335;-73
2023/05/04 00:18:46;;;;;;;7.63;4.77;;;;;;;4.17;81.73;101946.22;5010072;28;20216;-72
2023/05/04 00:21:12;;;;;;;7.87;4.60;;;;;;;4.15;81.98;101947.50;5028712;28;20581;-72
2023/05/04 00:23:39;;;;;;;6.57;5.00;;;;;;;4.13;81.47;101949.56;5024394;28;20220;-72
2023/05/04 00:26:07;;;;;;;6.30;4.33;;;;;;;4.10;82.39;101945.63;5013925;28;20594;-72
2023/05/04 00:28:33;;;;;;;7.50;4.73;;;;;;;4.08;82.11;101941.66;5027087;28;20207;-72
2023/05/04 00:31:04;;;;;;;7.20;4.63;;;;;;;4.06;82.32;101938.53;5015303;28;20829;-72
2023/05/04 00:33:31;;;;;;;4.63;3.73;;;;;;;4.04;82.11;101948.47;5014451;28;20234;-70
2023/05/04 00:35:57;;;;;;;7.87;4.03;;;;;;;4.01;82.87;101941.91;5028556;28;20229;-71
2023/05/04 00:38:23;;;;;;;7.63;4.43;;;;;;;4.02;82.91;101940.06;5027479;28;20371;-71
2023/05/04 00:40:50;;;;;;;8.40;4.20;;;;;;;3.99;82.88;101941.34;5029002;28;20865;-71
2023/05/04 00:43:18;;;;;;;6.53;4.77;;;;;;;3.98;82.57;101949.44;5010807;28;20204;-71
2023/05/04 00:45:44;;;;;;;6.73;4.27;;;;;;;3.96;83.10;101938.44;5010431;28;20323;-71
2023/05/04 00:48:11;;;;;;;5.57;3.60;;;;;;;3.93;83.33;101938.94;5012104;28;20200;-72
2023/05/04 00:50:37;;;;;;;13.57;4.57;;;;;;;3.91;83.55;101944.41;5028147;28;20379;-71
2023/05/04 00:53:08;;;;;;;5.57;3.90;;;;;;;3.87;82.94;101942.53;5010177;28;20745;-69
2023/05/04 00:55:38;;;;;;;7.17;4.50;;;;;;;3.85;83.51;101934.16;5009205;28;20223;-73
2023/05/04 00:58:05;;;;;;;6.23;4.37;;;;;;;3.81;83.31;101935.69;5028982;28;20621;-71
2023/05/04 01:00:33;;;;;;;8.07;4.97;;;;;;;3.79;82.87;101935.94;5028065;28;20206;-71
2023/05/04 01:02:59;;;;;;;6.03;4.20;;;;;;;3.78;83.51;101933.59;5026698;28;20201;-72
2023/05/04 01:05:26;;;;;;;6.10;4.70;;;;;;;3.74;83.61;101930.66;5028912;28;20216;-70
2023/05/04 01:08:01;;;;;;;6.10;4.10;;;;;;;3.69;83.27;101933.22;5012773;28;20214;-71
2023/05/04 01:10:33;;;;;;;8.33;4.50;;;;;;;3.69;83.79;101929.84;5024841;28;20733;-72
2023/05/04 01:13:04;;;;;;;9.27;4.67;;;;;;;3.64;83.06;101929.78;5028257;28;20226;-70
2023/05/04 01:15:33;;;;;;;7.33;4.73;;;;;;;3.62;83.03;101926.63;5030133;28;20216;-72
2023/05/04 01:17:59;;;;;;;5.90;4.10;;;;;;;3.62;83.67;101929.22;5027449;28;20238;-71
2023/05/04 01:20:26;;;;;;;7.40;4.47;;;;;;;3.56;83.59;101925.78;5029815;28;20295;-70
2023/05/04 01:22:55;;;;;;;6.43;4.60;;;;;;;3.55;83.54;101933.88;5026836;28;20288;-72
2023/05/04 01:25:21;;;;;;;8.27;4.40;;;;;;;3.53;83.85;101928.88;5011722;28;20746;-72
2023/05/04 01:27:56;;;;;;;5.23;4.23;;;;;;;3.53;83.61;101925.50;5012355;28;20210;-71
2023/05/04 01:30:29;;;;;;;9.87;4.80;;;;;;;3.51;84.17;101935.38;5007617;28;20260;-72
2023/05/04 01:32:57;;;;;;;9.77;4.37;;;;;;;3.46;83.93;101938.75;5024974;28;21971;-70
2023/05/04 01:35:24;;;;;;;7.80;5.07;;;;;;;3.44;83.97;101932.19;5025733;28;20238;-71
2023/05/04 01:37:50;;;;;;;8.17;5.03;;;;;;;3.45;84.20;101947.63;5028825;28;20208;-70
2023/05/04 01:40:19;;;;;;;7.37;4.23;;;;;;;3.45;84.15;101931.16;5026631;28;20210;-70
2023/05/04 01:42:45;;;;;;;4.73;3.63;;;;;;;3.41;84.49;101938.69;5026759;28;20222;-71
2023/05/04 01:45:12;;;;;;;6.20;4.87;;;;;;;3.38;83.98;101939.16;5022511;28;20203;-72
2023/05/04 01:47:39;;;;;;;8.23;4.87;;;;;;;3.42;84.64;101932.44;5024805;28;20712;-71
2023/05/04 01:50:06;;;;;;;6.33;4.63;;;;;;;3.41;84.46;101938.69;5029769;28;20280;-70
2023/05/04 01:52:33;;;;;;;8.20;4.10;;;;;;;3.37;85.02;101936.81;5010168;28;20228;-71
2023/05/04 01:54:59;;;;;;;7.23;4.77;;;;;;;3.38;85.19;101939.16;5031148;28;20200;-71
2023/05/04 01:57:27;;;;;;;4.80;3.97;;;;;;;3.35;84.77;101939.66;5025999;28;20226;-70
2023/05/04 01:59:53;;;;;;;6.80;4.50;;;;;;;3.33;84.75;101940.94;5009254;28;20208;-70
2023/05/04 02:02:20;;;;;;;9.03;4.87;;;;;;;3.31;85.06;101935.19;5009405;28;20325;-71
2023/05/04 02:04:46;;;;;;;5.57;4.17;;;;;;;3.31;84.96;101938.56;5020112;28;20219;-71
2023/05/04 02:07:13;;;;;;;5.17;4.30;;;;;;;3.30;85.44;101936.19;5022173;28;20232;-72
2023/05/04 02:09:41;;;;;;;6.23;4.43;;;;;;;3.25;85.30;101942.16;5004843;28;20217;-73
2023/05/04 02:12:08;;;;;;;7.30;4.87;;;;;;;3.22;84.86;101944.47;5007243;28;20250;-71
2023/05/04 02:14:36;;;;;;;8.43;5.27;;;;;;;3.17;84.54;101947.78;5002314;28;20279;-71
2023/05/04 02:17:08;;;;;;;6.53;4.53;;;;;;;3.17;85.23;101952.25;5004582;28;20266;-72
2023/05/04 02:19:36;;;;;;;6.73;4.43;;;;;;;3.14;85.18;101956.13;5024648;28;20297;-72
2023/05/04 02:22:03;;;;;;;5.00;3.87;;;;;;;3.13;84.91;101951.16;5010556;28;20718;-72
2023/05/04 02:24:33;;;;;;;7.17;4.70;;;;;;;3.10;85.09;101947.19;5024946;28;20652;-71
2023/05/04 02:27:00;;;;;;;5.60;4.23;;;;;;;3.07;85.04;101949.50;5010485;28;20215;-72
2023/05/04 02:29:27;;;;;;;6.60;4.47;;;;;;;3.08;85.09;101943.25;5007136;28;20267;-71
2023/05/04 02:31:55;;;;;;;6.93;4.40;;;;;;;3.08;85.15;101940.66;5002719;28;20617;-72
2023/05/04 02:34:22;;;;;;;5.43;4.40;;;;;;;3.04;85.55;101956.00;5023819;28;20220;-71
2023/05/04 02:36:49;;;;;;;8.97;4.60;;;;;;;3.01;85.40;101945.25;5023185;28;20237;-71
2023/05/04 02:39:15;;;;;;;10.93;4.73;;;;;;;2.96;85.51;101942.59;5010565;28;20219;-71
2023/05/04 02:41:41;;;;;;;5.50;4.37;;;;;;;2.92;85.52;101947.50;5008384;28;20215;-70
2023/05/04 02:44:08;;;;;;;7.77;4.83;;;;;;;2.86;85.00;101940.63;5025350;28;20218;-71
2023/05/04 02:46:34;;;;;;;6.27;4.27;;;;;;;2.84;85.41;101937.47;5006470;28;20224;-71
2023/05/04 02:49:02;;;;;;;6.70;4.37;;;;;;;2.82;85.47;101939.53;5032972;28;20190;-71
2023/05/04 02:51:28;;;;;;;8.60;5.00;;;;;;;2.80;85.51;101938.97;5029623;28;20227;-71
2023/05/04 02:53:55;;;;;;;9.40;4.90;;;;;;;2.77;85.38;101943.91;5011421;28;20224;-72
2023/05/04 02:56:21;;;;;;;5.17;3.80;;;;;;;2.74;85.56;101932.13;5028529;28;20241;-71
2023/05/04 02:58:47;;;;;;;5.07;4.00;;;;;;;2.75;85.69;101938.13;5028951;28;20744;-71
2023/05/04 03:01:14;;;;;;;5.90;4.33;;;;;;;2.71;85.41;101952.69;5015072;28;20309;-70
2023/05/04 03:03:40;;;;;;;5.83;4.47;;;;;;;2.69;85.42;101946.94;5013220;28;20194;-71
2023/05/04 03:06:08;;;;;;;6.93;4.30;;;;;;;2.65;86.05;101951.81;5011113;28;20318;-71
2023/05/04 03:08:44;;;;;;;6.77;4.90;;;;;;;2.64;86.08;101950.22;5011649;28;20677;-72
2023/05/04 03:11:11;;;;;;;7.87;4.50;;;;;;;2.66;85.90;101948.19;5025408;28;20238;-71
2023/05/04 03:13:37;;;;;;;10.87;4.27;;;;;;;2.63;85.93;101950.47;5023361;28;21351;-72
2023/05/04 03:16:04;;;;;;;6.37;4.27;;;;;;;2.58;86.03;101948.59;5010471;28;20600;-71
2023/05/04 03:18:34;;;;;;;5.43;3.97;;;;;;;2.57;86.25;101948.81;5025313;28;20212;-71
2023/05/04 03:21:01;;;;;;;5.70;4.37;;;;;;;2.57;86.46;101933.19;5007504;28;20486;-72
2023/05/04 03:23:30;;;;;;;5.33;4.43;;;;;;;2.54;86.50;101936.28;5013285;28;20758;-71
2023/05/04 03:25:59;;;;;;;5.83;4.13;;;;;;;2.48;86.47;101939.81;5026557;28;20234;-71
2023/05/04 03:28:29;;;;;;;8.47;5.20;;;;;;;2.45;86.31;101929.88;5007878;28;20295;-71
2023/05/04 03:30:55;;;;;;;10.40;4.37;;;;;;;2.45;86.06;101928.06;5011981;28;20210;-72
2023/05/04 03:33:22;;;;;;;6.87;4.67;;;;;;;2.43;86.42;101935.34;5005328;28;20222;-71
2023/05/04 03:35:48;;;;;;;11.17;4.57;;;;;;;2.45;86.57;101937.72;5026092;28;20224;-70
2023/05/04 03:38:26;;;;;;;8.23;4.83;;;;;;;2.44;86.64;101942.13;5006333;28;20237;-73
2023/05/04 03:40:56;;;;;;;9.67;4.50;;;;;;;2.46;86.51;101940.09;5004634;28;20200;-71
2023/05/04 03:43:23;;;;;;;7.70;5.00;;;;;;;2.45;86.66;101941.09;5009575;28;20208;-71
2023/05/04 03:45:49;;;;;;;7.53;4.70;;;;;;;2.45;86.56;101938.47;5000788;28;20236;-71
2023/05/04 03:48:17;;;;;;;6.10;4.50;;;;;;;2.45;86.29;101937.72;5019726;28;20218;-71
2023/05/04 03:50:43;;;;;;;7.03;4.57;;;;;;;2.44;86.21;101941.34;5000024;28;20454;-72
2023/05/04 03:53:10;;;;;;;6.10;4.27;;;;;;;2.46;86.69;101934.88;5000453;28;20225;-71
2023/05/04 03:55:36;;;;;;;5.53;4.37;;;;;;;2.50;86.80;101933.34;5001255;28;20290;-72
2023/05/04 03:58:04;;;;;;;6.67;4.87;;;;;;;2.51;86.81;101934.13;5018374;28;20207;-72
2023/05/04 04:00:31;;;;;;;7.67;4.63;;;;;;;2.51;86.86;101936.75;5001557;28;20560;-72
2023/05/04 04:03:07;;;;;;;5.47;4.70;;;;;;;2.56;86.78;101932.41;5003358;28;20200;-71
2023/05/04 04:05:35;;;;;;;7.73;5.03;;;;;;;2.62;86.94;101939.25;5017838;28;20706;-71
2023/05/04 04:08:02;;;;;;;6.60;4.60;;;;;;;2.63;87.12;101951.28;4997601;28;20222;-71
2023/05/04 04:10:28;;;;;;;7.60;5.40;;;;;;;2.67;87.71;101948.97;5003433;28;20208;-71
2023/05/04 04:12:58;;;;;;;7.50;5.17;;;;;;;2.69;86.91;101945.09;5018734;28;20252;-71
2023/05/04 04:15:26;;;;;;;8.07;4.73;;;;;;;2.74;87.65;101945.16;5017942;28;20368;-70
2023/05/04 04:17:52;;;;;;;6.47;4.73;;;;;;;2.83;87.74;101948.16;5018688;28;20734;-71
2023/05/04 04:20:18;;;;;;;7.67;5.37;;;;;;;2.89;87.53;101939.34;5018077;28;20208;-71
2023/05/04 04:22:45;;;;;;;6.70;4.93;;;;;;;2.93;87.53;101937.84;5020655;28;20206;-71
2023/05/04 04:25:12;;;;;;;7.20;4.80;;;;;;;3.04;87.23;101945.56;5022080;28;20206;-71
2023/05/04 04:27:39;;;;;;;11.37;6.17;;;;;;;3.12;87.70;101939.91;5018748;28;20197;-71
2023/05/04 04:30:07;;;;;;;10.47;6.10;;;;;;;3.16;87.62;101946.22;5017618;28;20265;-71
2023/05/04 04:32:34;;;;;;;8.17;5.57;;;;;;;3.23;87.49;101946.84;5016086;28;20203;-70
2023/05/04 04:35:01;;;;;;;12.67;5.93;;;;;;;3.28;87.47;101941.69;5019160;28;20224;-72
2023/05/04 04:37:27;;;;;;;10.07;5.90;;;;;;;3.39;87.47;101947.78;5019757;28;20207;-72
2023/05/04 04:39:54;;;;;;;10.47;6.00;;;;;;;3.49;87.74;101946.09;5018619;28;20200;-71
2023/05/04 04:42:23;;;;;;;9.50;5.90;;;;;;;3.59;87.50;101943.59;5019658;28;20287;-71
2023/05/04 04:44:51;;;;;;;12.07;6.17;;;;;;;3.69;86.99;101945.50;5017021;28;20218;-71
2023/05/04 04:47:17;;;;;;;10.67;6.40;;;;;;;3.81;86.66;101946.13;5018585;28;20589;-71
2023/05/04 04:49:46;;;;;;;9.23;6.70;;;;;;;3.89;86.65;101943.09;5016614;28;20214;-70
2023/05/04 04:52:13;;;;;;;11.90;6.87;;;;;;;4.05;86.98;101948.19;5019147;28;20204;-71
2023/05/04 04:54:40;;;;;;;9.87;6.70;;;;;;;4.11;86.82;101954.25;5017479;28;20224;-71
2023/05/04 04:57:06;;;;;;;11.03;7.10;;;;;;;4.24;86.42;101948.59;5019978;28;20223;-71
2023/05/04 04:59:33;;;;;;;12.43;7.33;;;;;;;4.36;86.49;101949.22;5019631;28;20224;-72
2023/05/04 05:01:59;;;;;;;10.30;6.90;;;;;;;4.46;86.45;101957.16;4997755;28;20562;-71
2023/05/04 05:04:26;;;;;;;10.27;7.07;;;;;;;4.54;86.55;101949.63;5022138;28;20212;-71
2023/05/04 05:06:58;;;;;;;13.20;7.33;;;;;;;4.64;85.98;101948.88;5013305;28;20306;-71
2023/05/04 05:09:27;;;;;;;11.93;7.37;;;;;;;4.74;85.93;101948.94;5016102;28;20211;-70
2023/05/04 05:11:54;;;;;;;12.47;7.30;;;;;;;4.85;85.92;101951.38;5014656;28;20708;-71
2023/05/04 05:14:22;;;;;;;10.87;7.37;;;;;;;4.94;85.76;101949.06;5018027;28;20617;-72
2023/05/04 05:16:49;;;;;;;12.17;7.27;;;;;;;5.05;85.59;101948.84;5016968;28;20220;-71
2023/05/04 05:19:16;;;;;;;12.03;7.90;;;;;;;5.15;85.68;101951.53;5019215;28;20207;-72
2023/05/04 05:21:44;;;;;;;11.83;6.93;;;;;;;5.23;85.02;101951.00;5014791;28;20204;-71
2023/05/04 05:24:12;;;;;;;13.00;7.77;;;;;;;5.36;85.28;101944.50;5018108;28;20204;-71
2023/05/04 05:26:38;;;;;;;11.67;6.93;;;;;;;5.45;84.60;101956.06;5015217;28;20220;-70
2023/05/04 05:29:05;;;;;;;13.10;7.83;;;;;;;5.55;84.13;101949.00;5018508;28;20298;-71
2023/05/04 05:31:31;;;;;;;13.77;7.10;;;;;;;5.68;84.11;101947.72;5017224;28;20204;-71
2023/05/04 05:34:00;;;;;;;12.70;7.17;;;;;;;5.76;83.66;101949.84;5012261;28;20271;-71
2023/05/04 05:36:27;;;;;;;11.80;6.87;;;;;;;5.88;83.32;101953.84;5009223;28;20223;-70
2023/05/04 05:38:53;;;;;;;12.03;7.83;;;;;;;5.99;83.35;101944.13;5006458;28;20211;-71
2023/05/04 05:41:21;;;;;;;12.97;8.07;;;;;;;6.11;83.76;101945.44;5013226;28;20297;-71
2023/05/04 05:43:48;;;;;;;13.20;7.73;;;;;;;6.22;83.30;101951.50;5014795;28;20608;-72
2023/05/04 05:46:14;;;;;;;14.13;7.73;;;;;;;6.32;82.40;101954.09;5019549;28;20231;-70
2023/05/04 05:48:41;;;;;;;9.90;7.10;;;;;;;6.44;81.88;101954.63;5014837;28;20203;-71
2023/05/04 05:51:08;;;;;;;14.17;7.60;;;;;;;6.55;82.01;101950.91;4996418;28;20713;-71
2023/05/04 05:53:34;;;;;;;12.43;8.33;;;;;;;6.67;80.76;101946.16;5018793;28;20628;-71
2023/05/04 05:56:05;;;;;;;14.87;8.83;;;;;;;6.77;80.18;101946.94;5015928;28;20281;-72
2023/05/04 05:58:33;;;;;;;18.20;9.67;;;;;;;6.91;79.89;101953.22;5021113;28;20566;-72
2023/05/04 06:01:00;;;;;;;14.90;9.47;;;;;;;7.04;78.66;101950.00;5011226;28;20204;-71
2023/05/04 06:03:26;;;;;;;17.80;9.27;;;;;;;7.15;78.20;101951.53;5015023;28;20203;-71
2023/05/04 06:05:53;;;;;;;13.07;8.30;;;;;;;7.28;77.70;101944.91;5017943;28;20236;-71
2023/05/04 06:08:19;;;;;;;12.23;7.73;;;;;;;7.39;77.20;101949.84;5016738;28;20457;-71
2023/05/04 06:10:46;;;;;;;16.70;8.13;;;;;;;7.51;76.40;101946.91;5012904;28;20251;-71
2023/05/04 06:13:13;;;;;;;14.40;7.23;;;;;;;7.63;75.86;101949.97;5011557;28;20879;-71
2023/05/04 06:15:41;;;;;;;13.17;6.97;;;;;;;7.76;75.33;101946.75;5014686;28;20361;-72
2023/05/04 06:18:07;;;;;;;16.53;5.67;;;;;;;7.87;75.16;101946.41;4997663;28;20435;-71
2023/05/04 06:20:40;;;;;;;9.00;6.10;;;;;;;7.99;74.42;101944.22;5017386;28;20231;-72
2023/05/04 06:23:06;;;;;;;10.00;6.53;;;;;;;8.12;74.39;101940.19;5016120;28;20219;-72
2023/05/04 06:25:33;;;;;;;11.70;5.30;;;;;;;8.25;74.19;101948.25;5014706;28;20745;-71
2023/05/04 06:28:00;;;;;;;15.50;5.63;;;;;;;8.38;73.70;101947.59;5018738;28;20301;-71
2023/05/04 06:30:26;;;;;;;8.33;5.27;;;;;;;8.50;73.20;101945.38;5001581;28;20639;-72
2023/05/04 06:32:54;;;;;;;8.73;5.00;;;;;;;8.66;71.85;101956.53;5014924;28;20207;-71
2023/05/04 06:35:20;;;;;;;7.10;5.20;;;;;;;8.78;71.59;101951.66;5014766;28;20229;-71
2023/05/04 06:37:51;;;;;;;6.57;5.00;;;;;;;8.91;70.34;101943.13;5019319;28;20207;-72
2023/05/04 06:40:17;;;;;;;9.43;5.20;;;;;;;9.03;70.61;101943.50;5018395;28;20212;-72
2023/05/04 06:42:44;;;;;;;7.57;4.70;;;;;;;9.17;70.26;101939.88;5016210;28;20695;-71
2023/05/04 06:45:10;;;;;;;9.00;4.80;;;;;;;9.28;70.22;101938.72;5001245;28;20670;-71
2023/05/04 06:47:45;;;;;;;8.97;5.23;;;;;;;9.40;69.80;101936.44;5001976;28;20684;-72
2023/05/04 06:50:14;;;;;;;9.43;4.60;;;;;;;9.53;69.89;101943.63;5016425;28;20634;-71
2023/05/04 06:52:43;;;;;;;8.77;4.13;;;;;;;9.68;68.13;101945.28;5018351;28;20861;-73
2023/05/04 06:55:10;;;;;;;7.50;4.40;;;;;;;9.80;67.54;101940.34;5016488;28;20225;-71
2023/05/04 06:57:36;;;;;;;7.93;4.53;;;;;;;9.90;68.17;101940.19;5017557;28;20203;-72
2023/05/04 07:00:04;;;;;;;10.60;4.80;;;;;;;10.02;67.38;101943.94;5013264;28;20736;-72
2023/05/04 07:02:31;;;;;;;6.93;3.63;;;;;;;10.15;67.20;101947.75;5016986;28;20475;-72
2023/05/04 07:04:58;;;;;;;10.53;4.33;;;;;;;10.29;67.25;101941.41;5018425;28;20221;-71
2023/05/04 07:07:26;;;;;;;8.33;4.37;;;;;;;10.43;65.76;101939.59;5017863;28;20188;-71
2023/05/04 07:09:52;;;;;;;7.03;3.93;;;;;;;10.55;66.24;101939.88;5016016;28;20295;-72
2023/05/04 07:12:19;;;;;;;11.80;4.30;;;;;;;10.69;63.92;101950.47;5015964;28;20232;-71
2023/05/04 07:14:45;;;;;;;4.73;3.83;;;;;;;10.83;65.31;101945.97;5016717;28;20585;-71
2023/05/04 07:17:13;;;;;;;5.27;3.73;;;;;;;10.94;65.32;101937.56;5016999;28;20220;-71
2023/05/04 07:19:39;;;;;;;4.90;3.27;;;;;;;11.07;66.27;101939.41;5018245;28;20205;-71
2023/05/04 07:22:06;;;;;;;6.17;3.27;;;;;;;11.23;64.29;101932.72;5014796;28;20201;-71
2023/05/04 07:24:33;;;;;;;6.80;3.57;;;;;;;11.38;63.88;101937.69;5017585;28;20210;-72
2023/05/04 07:27:04;;;;;;;4.77;3.17;;;;;;;11.54;62.44;101935.50;5016494;28;20225;-73
2023/05/04 07:29:31;;;;;;;7.53;3.90;;;;;;;11.66;63.16;101928.66;5014908;28;20257;-71
2023/05/04 07:31:57;;;;;;;4.17;2.63;;;;;;;11.80;63.28;101933.88;5018096;28;20559;-70
2023/05/04 07:34:25;;;;;;;5.43;2.70;;;;;;;11.93;61.95;101928.53;5017985;28;20209;-71
2023/05/04 07:36:51;;;;;;;3.80;2.30;;;;;;;12.11;59.99;101927.53;5004030;28;20309;-71
2023/05/04 07:39:17;;;;;;;6.50;2.53;;;;;;;12.25;59.16;101933.56;5021106;28;20214;-69
2023/05/04 07:41:45;;;;;;;2.97;2.17;;;;;;;12.38;59.28;101929.25;5021069;28;20684;-71
2023/05/04 07:44:12;;;;;;;2.63;2.10;;;;;;;12.52;59.89;101929.97;5004106;28;20265;-70
2023/05/04 07:46:38;;;;;;;3.07;2.57;;;;;;;12.64;57.74;101919.56;5020548;28;20235;-72
2023/05/04 07:49:05;;;;;;;2.80;1.90;;;;;;;12.74;59.70;101917.38;5021473;28;21005;-70
2023/05/04 07:51:32;;;;;;;5.07;2.03;;;;;;;12.89;59.41;101929.47;5020889;28;20222;-71
2023/05/04 07:53:58;;;;;;;2.57;1.97;;;;;;;13.02;57.76;101925.94;5021470;28;20218;-71
2023/05/04 07:56:25;;;;;;;2.33;1.73;;;;;;;13.12;54.21;101923.78;5036366;23;20303;-75
2023/05/04 07:58:53;;;;;;;6.17;1.97;;;;;;;13.21;54.72;101929.09;5026552;28;20603;-75
2023/05/04 08:01:19;;;;;;;3.03;1.87;;;;;;;13.31;51.62;101928.78;5024481;28;20210;-74
2023/05/04 08:03:45;;;;;;;2.80;1.77;;;;;;;13.38;54.18;101926.44;5022379;28;20301;-75
2023/05/04 08:06:12;;;;;;;2.43;1.80;;;;;;;13.51;53.33;101922.88;5021924;28;20266;-75
2023/05/04 08:08:38;;;;;;;3.80;1.70;;;;;;;13.61;53.92;101920.69;5028227;28;20605;-74
2023/05/04 08:11:05;;;;;;;3.23;1.97;;;;;;;13.71;51.16;101920.38;5026363;28;20219;-74
2023/05/04 08:13:31;;;;;;;3.17;1.93;;;;;;;13.80;49.46;101915.84;5023101;28;20211;-75
2023/05/04 08:16:00;;;;;;;3.27;2.40;;;;;;;13.89;55.45;101923.78;5006737;28;20267;-74
2023/05/04 08:18:27;;;;;;;3.83;2.00;;;;;;;13.98;52.13;101920.00;5025640;28;20196;-74
2023/05/04 08:20:53;;;;;;;3.00;2.27;;;;;;;14.04;52.09;101924.09;5023952;28;20279;-74
2023/05/04 08:23:20;;;;;;;2.63;2.10;;;;;;;14.12;55.16;101917.19;5021751;28;20661;-75
2023/05/04 08:25:46;;;;;;;4.53;1.90;;;;;;;14.19;52.09;101918.28;5024737;28;20285;-74
2023/05/04 08:28:13;;;;;;;2.53;2.17;;;;;;;14.30;51.68;101910.75;5007161;28;20204;-74
2023/05/04 08:30:39;;;;;;;2.97;1.80;;;;;;;14.37;49.58;101909.19;5026913;28;20658;-75
2023/05/04 08:33:07;;;;;;;4.97;2.00;;;;;;;14.47;50.90;101908.81;5024548;28;20223;-74
2023/05/04 08:35:33;;;;;;;2.50;1.93;;;;;;;14.58;44.99;101907.38;5024034;28;20800;-74
2023/05/04 08:38:00;;;;;;;1.87;1.67;;;;;;;14.71;48.13;101917.03;5024665;28;20201;-74
2023/05/04 08:40:26;;;;;;;2.47;1.53;;;;;;;14.81;48.95;101902.56;5028092;28;20239;-74
2023/05/04 08:42:53;;;;;;;3.83;1.90;;;;;;;14.90;51.13;101900.66;5023052;28;20794;-74
2023/05/04 08:45:19;;;;;;;4.07;1.90;;;;;;;15.02;48.32;101903.38;5022847;28;20197;-74
2023/05/04 08:47:45;;;;;;;3.43;1.93;;;;;;;15.10;47.07;101894.56;5024759;28;20285;-74
2023/05/04 08:50:13;;;;;;;2.77;1.73;;;;;;;15.16;47.55;101893.28;5026465;28;20203;-74
2023/05/04 08:52:45;;;;;;;2.20;1.70;;;;;;;15.27;51.96;101891.78;5024198;28;20691;-74
2023/05/04 08:55:11;;;;;;;3.67;1.80;;;;;;;15.36;45.84;101895.19;5025881;28;20222;-75
2023/05/04 08:57:41;;;;;;;2.00;1.70;;;;;;;15.42;45.52;101893.91;5026378;28;20228;-74
2023/05/04 09:00:10;;;;;;;3.33;1.70;;;;;;;15.49;48.01;101886.16;5024063;28;20204;-74
2023/05/04 09:02:37;;;;;;;4.20;1.63;;;;;;;15.54;47.84;101891.28;5004535;28;20558;-74
2023/05/04 09:05:06;;;;;;;3.90;1.60;;;;;;;15.60;50.46;101890.75;5022510;28;20270;-74
2023/05/04 09:07:34;;;;;;;2.73;1.80;;;;;;;15.65;46.76;101871.13;5022063;28;20193;-75
2023/05/04 09:10:01;;;;;;;3.67;1.63;;;;;;;15.74;45.83;101880.56;5022017;28;20200;-74
2023/05/04 09:12:27;;;;;;;6.43;1.90;;;;;;;15.80;43.68;101887.28;5024058;28;20602;-75
2023/05/04 09:14:54;;;;;;;2.93;1.53;;;;;;;15.87;44.34;101884.06;5022414;28;20568;-75
2023/05/04 09:17:24;;;;;;;2.53;1.60;;;;;;;15.93;40.81;101882.78;5024928;28;20551;-75
2023/05/04 09:19:57;;;;;;;2.20;1.40;;;;;;;15.96;43.85;101874.91;5020188;28;20208;-75
2023/05/04 09:22:24;;;;;;;2.23;1.87;;;;;;;15.99;41.38;101873.47;5024500;28;20203;-75
2023/05/04 09:24:51;;;;;;;2.70;1.47;;;;;;;16.06;44.37;101873.69;5022126;28;20200;-74
2023/05/04 09:27:18;;;;;;;1.30;1.20;;;;;;;16.08;42.05;101874.91;5022116;28;20204;-74
2023/05/04 09:29:52;;;;;;;1.83;1.57;;;;;;;16.13;45.96;101872.03;5023249;28;20564;-74
2023/05/04 09:32:18;;;;;;;4.57;1.60;;;;;;;16.22;45.14;101864.72;5023128;28;20206;-75
2023/05/04 09:34:49;;;;;;;3.87;1.70;;;;;;;16.27;46.30;101866.38;5017299;28;20274;-74
2023/05/04 09:37:15;;;;;;;2.47;1.80;;;;;;;16.33;43.73;101868.50;5023795;28;20227;-74
2023/05/04 09:39:54;;;;;;;3.07;1.60;;;;;;;16.39;48.05;101863.75;5023775;28;20202;-75
2023/05/04 09:42:22;;;;;;;1.90;1.67;;;;;;;16.44;45.76;101861.66;5023696;28;20202;-74
2023/05/04 09:44:59;;;;;;;5.13;1.70;;;;;;;16.50;42.11;101854.22;5020655;28;20207;-74
2023/05/04 09:47:33;;;;;;;3.07;1.30;;;;;;;16.58;45.84;101855.97;5024513;28;20702;-75
2023/05/04 09:50:10;;;;;;;2.83;1.37;;;;;;;16.63;42.73;101847.75;5023733;28;20270;-75
2023/05/04 09:52:37;;;;;;;2.67;1.50;;;;;;;16.72;38.63;101846.50;5021851;28;20595;-74
2023/05/04 09:55:10;;;;;;;2.60;1.50;;;;;;;16.79;37.89;101844.06;5020985;28;20204;-75
2023/05/04 09:57:36;;;;;;;2.70;1.70;;;;;;;16.84;43.18;101833.16;5021261;28;20203;-74
2023/05/04 10:00:04;;;;;;;2.43;1.50;;;;;;;16.93;41.46;101835.69;5005053;28;20580;-75
2023/05/04 10:02:33;;;;;;;3.37;1.60;;;;;;;16.99;42.47;101837.81;5018323;28;20597;-75
2023/05/04 10:05:01;;;;;;;2.90;1.30;;;;;;;17.04;42.05;101836.78;5024268;28;20658;-74
2023/05/04 10:07:31;;;;;;;3.03;1.50;;;;;;;17.10;39.73;101830.88;5021236;28;20207;-74
2023/05/04 10:09:58;;;;;;;5.80;1.40;;;;;;;17.16;40.11;101826.84;5020592;28;20206;-74
2023/05/04 10:12:25;;;;;;;3.80;1.50;;;;;;;17.23;41.35;101834.28;5006456;28;20659;-75
2023/05/04 10:14:52;;;;;;;3.10;1.60;;;;;;;17.26;39.51;101817.56;5019551;28;20193;-75
2023/05/04 10:17:33;;;;;;;2.60;1.40;;;;;;;17.27;36.17;101822.56;5005541;28;20201;-74
2023/05/04 10:20:11;;;;;;;2.57;1.23;;;;;;;17.30;36.98;101811.22;5021172;28;20207;-74
2023/05/04 10:23:02;;;;;;;4.37;1.50;;;;;;;17.35;37.54;101816.31;5020623;28;20207;-74
2023/05/04 10:25:48;;;;;;;2.17;1.27;;;;;;;17.37;40.20;101814.09;5021245;28;20778;-75
2023/05/04 10:28:31;;;;;;;4.63;1.67;;;;;;;17.40;39.45;101824.13;5020494;28;20199;-74
2023/05/04 10:30:58;;;;;;;3.63;1.37;;;;;;;17.40;39.83;101802.75;5020370;28;20202;-74
2023/05/04 10:33:25;;;;;;;5.33;1.50;;;;;;;17.45;36.79;101799.84;5022220;28;20587;-74
2023/05/04 10:35:52;;;;;;;4.53;1.40;;;;;;;17.53;39.59;101806.13;5020237;28;20228;-75
2023/05/04 10:38:19;;;;;;;1.73;1.20;;;;;;;17.55;34.55;101795.88;5021432;28;20204;-74
2023/05/04 10:40:47;;;;;;;2.73;1.27;;;;;;;17.63;40.36;101800.28;5020414;28;20208;-75
2023/05/04 10:43:23;;;;;;;2.70;1.37;;;;;;;17.67;35.41;101793.13;5019705;28;20224;-74
2023/05/04 10:45:50;;;;;;;2.53;1.60;;;;;;;17.75;40.12;101784.19;5020605;28;20199;-74
2023/05/04 10:48:16;;;;;;;4.23;1.43;;;;;;;17.84;40.57;101785.56;5021513;28;20195;-75
2023/05/04 10:50:44;;;;;;;3.87;1.70;;;;;;;17.94;41.06;101789.63;5023358;28;20199;-74
2023/05/04 10:53:11;;;;;;;3.03;1.50;;;;;;;18.03;41.72;101782.19;5022470;28;20243;-75
2023/05/04 10:55:41;;;;;;;3.00;1.43;;;;;;;18.06;37.25;101773.50;5000576;28;20220;-75
2023/05/04 10:58:09;;;;;;;3.97;1.37;;;;;;;18.10;36.80;101772.44;5022928;28;20203;-74
2023/05/04 11:00:38;;;;;;;3.13;1.50;;;;;;;18.16;36.05;101775.66;5019493;28;20685;-75
2023/05/04 11:03:06;;;;;;;2.20;1.37;;;;;;;18.22;38.51;101766.25;5018088;28;20650;-74
2023/05/04 11:05:42;;;;;;;2.50;1.30;;;;;;;18.31;41.57;101770.25;5018964;28;20666;-75
2023/05/04 11:08:16;;;;;;;1.67;1.30;;;;;;;18.41;37.63;101775.09;5008083;28;20204;-74
2023/05/04 11:10:43;;;;;;;1.30;1.20;;;;;;;18.48;36.12;101763.78;5010517;28;20212;-74
2023/05/04 11:13:11;;;;;;;3.13;1.47;;;;;;;18.53;36.07;101758.94;5025956;28;20224;-74
2023/05/04 11:15:45;;;;;;;1.47;1.20;;;;;;;18.60;39.56;101760.97;5022606;28;20216;-74
2023/05/04 11:18:12;;;;;;;1.97;1.40;;;;;;;18.63;41.16;101747.69;5003888;28;20209;-75
2023/05/04 11:20:38;;;;;;;4.87;1.50;;;;;;;18.69;38.56;101748.94;5023191;28;20278;-75
2023/05/04 11:23:08;;;;;;;4.43;1.40;;;;;;;18.73;38.32;101741.78;5003426;28;20765;-74
2023/05/04 11:25:36;;;;;;;1.47;1.20;;;;;;;18.82;36.00;101737.00;5023156;28;20196;-74
2023/05/04 11:28:03;;;;;;;4.20;1.43;;;;;;;18.89;37.50;101742.47;5025509;28;20200;-74
2023/05/04 11:30:30;;;;;;;2.23;1.30;;;;;;;18.98;35.55;101740.34;5024169;28;20239;-75
2023/05/04 11:32:59;;;;;;;2.97;1.50;;;;;;;19.05;38.88;101737.81;5022500;28;20223;-75